Time;durP1;ratioP1;P1;durP2;ratioP2;P2;SDS_P1;SDS_P2;PMS_P1;PMS_P2;Temp;Humidity;BMP_temperature;BMP_pressure;BME280_temperature;BME280_humidity;BME280_pressure;Samples;Min_cycle;Max_cycle;Signal;HPM_P1;HPM_P2
2024/02/10 00:00:15;;;;;;;21.00;18.77;;;9.00;1.00;;;;;;5090216;28;20455;-75
2024/02/10 00:02:43;;;;;;;23.83;19.10;;;8.90;1.00;;;;;;5088600;28;20481;-76
2024/02/10 00:05:13;;;;;;;20.40;17.60;;;8.90;1.00;;;;;;5086581;28;20470;-75
2024/02/10 00:07:40;;;;;;;20.47;17.97;;;8.80;1.00;;;;;;5090206;28;20470;-78
2024/02/10 00:10:08;;;;;;;23.80;19.00;;;8.80;1.00;;;;;;5089906;28;20535;-76
2024/02/10 00:12:35;;;;;;;21.50;18.63;;;8.80;1.00;;;;;;5091662;28;20883;-76
2024/02/10 00:15:05;;;;;;;20.67;18.47;;;8.70;1.00;;;;;;5108532;27;20497;-75
2024/02/10 00:17:32;;;;;;;19.70;17.60;;;8.80;1.00;;;;;;5109598;27;20465;-76
2024/02/10 00:19:59;;;;;;;20.50;17.77;;;8.80;1.00;;;;;;5111539;27;20454;-74
2024/02/10 00:22:28;;;;;;;20.90;18.63;;;8.90;1.00;;;;;;5111153;27;20466;-75
2024/02/10 00:24:57;;;;;;;23.10;17.70;;;8.90;1.00;;;;;;5109574;27;20450;-76
2024/02/10 00:27:24;;;;;;;16.57;14.87;;;8.90;1.00;;;;;;5107609;27;21163;-76
2024/02/10 00:29:51;;;;;;;20.00;17.70;;;9.10;1.00;;;;;;5108529;27;20537;-76
2024/02/10 00:32:18;;;;;;;20.90;18.17;;;9.10;1.00;;;;;;5111097;27;20474;-76
2024/02/10 00:34:45;;;;;;;20.53;17.23;;;9.10;1.00;;;;;;5109169;27;20449;-75
2024/02/10 00:37:16;;;;;;;20.43;17.80;;;9.10;1.00;;;;;;5110121;27;20461;-75
2024/02/10 00:39:45;;;;;;;24.00;18.00;;;9.10;1.00;;;;;;5108695;27;20519;-75
2024/02/10 00:42:13;;;;;;;20.57;18.37;;;9.10;1.00;;;;;;5109629;27;20458;-75
2024/02/10 00:44:40;;;;;;;20.23;16.67;;;9.20;1.00;;;;;;5106754;27;20457;-75
2024/02/10 00:47:12;;;;;;;19.73;16.60;;;9.10;1.00;;;;;;5109051;27;20470;-74
2024/02/10 00:49:40;;;;;;;21.20;17.50;;;9.20;1.00;;;;;;5110898;27;20481;-75
2024/02/10 00:52:08;;;;;;;19.20;17.13;;;9.20;1.00;;;;;;5109189;27;20957;-74
2024/02/10 00:54:37;;;;;;;22.00;18.37;;;9.20;1.00;;;;;;5107974;27;20487;-75
2024/02/10 00:57:10;;;;;;;19.43;17.33;;;9.00;1.00;;;;;;5109184;27;20454;-77
2024/02/10 00:59:37;;;;;;;18.43;16.53;;;9.10;1.00;;;;;;5106312;27;20485;-74
2024/02/10 01:02:05;;;;;;;20.17;16.33;;;9.10;1.00;;;;;;5107452;28;21926;-74
2024/02/10 01:04:32;;;;;;;19.43;17.17;;;9.10;1.00;;;;;;5089495;27;20550;-76
2024/02/10 01:07:01;;;;;;;20.60;16.60;;;9.20;1.00;;;;;;5108475;27;20949;-76
2024/02/10 01:09:29;;;;;;;16.63;14.93;;;9.20;1.00;;;;;;5104938;27;21000;-72
2024/02/10 01:11:56;;;;;;;20.97;16.63;;;9.10;1.00;;;;;;5094337;28;20519;-71
2024/02/10 01:14:29;;;;;;;18.30;16.07;;;9.10;1.00;;;;;;5094841;28;20533;-71
2024/02/10 01:16:57;;;;;;;16.43;14.73;;;9.10;1.00;;;;;;5087092;28;21015;-70
2024/02/10 01:19:25;;;;;;;23.23;17.40;;;9.10;1.00;;;;;;5089953;28;20869;-70
2024/02/10 01:21:54;;;;;;;19.47;17.07;;;9.10;1.00;;;;;;5088367;28;20489;-70
2024/02/10 01:24:22;;;;;;;19.80;16.97;;;9.00;1.00;;;;;;5090634;28;20451;-71
2024/02/10 01:26:49;;;;;;;16.67;14.37;;;9.00;1.00;;;;;;5090084;28;20516;-71
2024/02/10 01:29:19;;;;;;;19.87;15.30;;;9.10;1.00;;;;;;5092985;28;20454;-71
2024/02/10 01:31:47;;;;;;;16.77;14.93;;;9.10;1.00;;;;;;5087134;28;20581;-70
2024/02/10 01:34:16;;;;;;;19.43;16.37;;;9.20;1.00;;;;;;5090959;28;20439;-72
2024/02/10 01:36:44;;;;;;;19.27;15.70;;;9.20;1.00;;;;;;5091963;28;21465;-70
2024/02/10 01:39:11;;;;;;;21.60;16.70;;;9.20;1.00;;;;;;5089392;28;20944;-71
2024/02/10 01:41:38;;;;;;;16.47;14.70;;;9.20;1.00;;;;;;5088505;28;20470;-72
2024/02/10 01:44:06;;;;;;;15.50;13.90;;;9.30;1.00;;;;;;5088959;28;20528;-76
2024/02/10 01:46:34;;;;;;;15.70;13.60;;;9.20;1.00;;;;;;5093632;28;20458;-72
2024/02/10 01:49:02;;;;;;;15.70;14.00;;;9.30;1.00;;;;;;5090869;28;20466;-72
2024/02/10 01:51:30;;;;;;;14.23;12.33;;;9.30;1.00;;;;;;5091428;28;20471;-70
2024/02/10 01:53:58;;;;;;;16.93;14.60;;;9.30;1.00;;;;;;5089615;28;20985;-73
2024/02/10 01:56:28;;;;;;;17.77;15.50;;;9.30;1.00;;;;;;5089603;28;20558;-74
2024/02/10 01:58:56;;;;;;;16.20;14.50;;;9.30;1.00;;;;;;5093965;28;20528;-70
2024/02/10 02:01:23;;;;;;;14.93;12.53;;;9.30;1.00;;;;;;5090120;28;20466;-73
2024/02/10 02:03:50;;;;;;;17.00;15.20;;;9.30;1.00;;;;;;5092425;28;20476;-70
2024/02/10 02:06:19;;;;;;;15.73;13.60;;;9.30;1.00;;;;;;5093707;28;20462;-71
2024/02/10 02:08:47;;;;;;;18.07;16.13;;;9.30;1.00;;;;;;5093771;28;20454;-71
2024/02/10 02:11:14;;;;;;;16.00;14.13;;;9.20;1.00;;;;;;5103722;27;20476;-73
2024/02/10 02:13:41;;;;;;;15.87;14.17;;;9.20;1.00;;;;;;5112494;27;20470;-74
2024/02/10 02:16:11;;;;;;;16.90;14.47;;;9.30;1.00;;;;;;5110713;27;20458;-71
2024/02/10 02:18:38;;;;;;;15.77;13.93;;;9.30;1.00;;;;;;5114317;27;20874;-71
2024/02/10 02:21:06;;;;;;;16.90;15.20;;;9.30;1.00;;;;;;5111567;27;20465;-75
2024/02/10 02:23:35;;;;;;;15.93;13.30;;;9.30;1.00;;;;;;5109095;27;20464;-76
2024/02/10 02:26:04;;;;;;;16.83;15.10;;;9.20;1.00;;;;;;5110707;27;21163;-76
2024/02/10 02:28:31;;;;;;;18.97;15.20;;;9.10;1.00;;;;;;5112392;27;20456;-78
2024/02/10 02:30:58;;;;;;;16.70;14.93;;;9.10;1.00;;;;;;5113378;27;20504;-76
2024/02/10 02:33:24;;;;;;;15.07;13.53;;;9.10;1.00;;;;;;5114168;27;20449;-76
2024/02/10 02:35:53;;;;;;;14.73;13.23;;;9.20;1.00;;;;;;5113128;27;21030;-77
2024/02/10 02:38:23;;;;;;;15.97;14.20;;;9.20;1.00;;;;;;5111728;27;20492;-77
2024/02/10 02:40:52;;;;;;;14.73;13.33;;;9.30;1.00;;;;;;5112000;27;20470;-77
2024/02/10 02:43:19;;;;;;;17.53;14.73;;;9.30;1.00;;;;;;5111946;27;20481;-75
2024/02/10 02:45:46;;;;;;;16.50;14.80;;;9.30;1.00;;;;;;5110723;27;20459;-76
2024/02/10 02:48:13;;;;;;;16.50;13.90;;;9.30;1.00;;;;;;5111658;27;21081;-77
2024/02/10 02:50:41;;;;;;;16.70;14.27;;;9.20;1.00;;;;;;5111941;27;20465;-77
2024/02/10 02:53:08;;;;;;;14.60;13.00;;;9.20;1.00;;;;;;5109958;27;20491;-76
2024/02/10 02:55:35;;;;;;;15.13;13.67;;;9.20;1.00;;;;;;5111636;27;20457;-75
2024/02/10 02:58:09;;;;;;;13.77;12.27;;;9.30;1.00;;;;;;5108400;27;20461;-77
2024/02/10 03:00:36;;;;;;;16.10;13.40;;;9.30;1.00;;;;;;5113503;27;21199;-76
2024/02/10 03:03:03;;;;;;;13.30;12.00;;;9.30;1.00;;;;;;5112009;27;20585;-76
2024/02/10 03:05:30;;;;;;;14.60;13.10;;;9.40;1.00;;;;;;5115332;27;20458;-76
2024/02/10 03:07:57;;;;;;;15.03;13.50;;;9.50;1.00;;;;;;5109431;27;20454;-77
2024/02/10 03:10:24;;;;;;;14.73;12.40;;;9.50;1.00;;;;;;5114732;27;20522;-78
2024/02/10 03:12:51;;;;;;;15.80;14.13;;;9.60;1.00;;;;;;5110735;27;20441;-77
2024/02/10 03:15:20;;;;;;;15.13;13.53;;;9.50;1.00;;;;;;5110262;27;20479;-78
2024/02/10 03:17:49;;;;;;;17.03;13.43;;;9.40;1.00;;;;;;5110501;27;20537;-77
2024/02/10 03:20:21;;;;;;;12.60;11.30;;;9.50;1.00;;;;;;5112221;27;20638;-78
2024/02/10 03:22:53;;;;;;;14.87;12.63;;;9.50;1.00;;;;;;5111589;27;20453;-77
2024/02/10 03:25:22;;;;;;;16.00;11.60;;;9.50;1.00;;;;;;5113696;27;21348;-77
2024/02/10 03:27:49;;;;;;;14.57;13.07;;;9.60;1.00;;;;;;5109442;27;20569;-77
2024/02/10 03:30:16;;;;;;;15.23;13.07;;;9.60;1.00;;;;;;5111048;27;20445;-76
2024/02/10 03:32:45;;;;;;;13.80;12.50;;;9.70;1.00;;;;;;5107300;27;20419;-77
2024/02/10 03:35:12;;;;;;;14.27;12.77;;;9.60;1.00;;;;;;5110801;27;20488;-77
2024/02/10 03:37:40;;;;;;;12.00;10.60;;;9.70;1.00;;;;;;5109393;27;20901;-77
2024/02/10 03:40:09;;;;;;;14.87;11.30;;;9.70;1.00;;;;;;5109969;27;20471;-76
2024/02/10 03:42:36;;;;;;;14.07;12.57;;;9.80;1.00;;;;;;5108554;27;20464;-78
2024/02/10 03:45:03;;;;;;;13.27;11.90;;;9.80;1.00;;;;;;5108917;27;20469;-76
2024/02/10 03:47:31;;;;;;;11.27;10.17;;;9.90;1.00;;;;;;5110691;27;20586;-76
2024/02/10 03:50:00;;;;;;;12.20;10.87;;;9.90;1.00;;;;;;5111195;27;20474;-78
2024/02/10 03:52:26;;;;;;;12.97;11.67;;;10.00;1.00;;;;;;5108848;27;21015;-77
2024/02/10 03:54:53;;;;;;;11.57;10.47;;;10.00;1.00;;;;;;5110262;27;20457;-74
2024/02/10 03:57:21;;;;;;;11.83;10.63;;;10.00;1.00;;;;;;5110790;27;20469;-74
2024/02/10 03:59:48;;;;;;;12.43;11.07;;;10.10;1.00;;;;;;5109978;27;20523;-78
2024/02/10 04:02:18;;;;;;;11.70;10.27;;;10.10;1.00;;;;;;5113423;27;20433;-77
2024/02/10 04:04:45;;;;;;;12.00;10.80;;;10.10;1.00;;;;;;5112238;27;20461;-78
2024/02/10 04:07:15;;;;;;;12.87;10.60;;;10.10;1.00;;;;;;5109810;27;20494;-78
2024/02/10 04:09:43;;;;;;;11.20;9.97;;;10.10;1.00;;;;;;5106990;27;20470;-75
2024/02/10 04:12:11;;;;;;;13.20;10.80;;;10.10;1.00;;;;;;5091326;28;20466;-76
2024/02/10 04:14:38;;;;;;;14.80;11.23;;;10.20;1.00;;;;;;5094732;28;20549;-77
2024/02/10 04:17:05;;;;;;;10.57;9.47;;;10.10;1.00;;;;;;5091565;28;20459;-76
2024/02/10 04:19:32;;;;;;;12.40;11.20;;;10.10;1.00;;;;;;5108962;27;20471;-77
2024/02/10 04:22:03;;;;;;;11.63;10.47;;;9.90;1.00;;;;;;5113720;27;20474;-75
2024/02/10 04:24:31;;;;;;;10.53;9.43;;;9.90;1.00;;;;;;5114737;27;20996;-76
2024/02/10 04:26:58;;;;;;;12.03;10.80;;;10.00;1.00;;;;;;5114547;27;20604;-75
2024/02/10 04:29:25;;;;;;;12.53;10.10;;;10.10;1.00;;;;;;5113287;27;20501;-77
2024/02/10 04:31:56;;;;;;;12.07;10.87;;;10.00;1.00;;;;;;5116591;27;20450;-75
2024/02/10 04:34:23;;;;;;;13.03;11.63;;;10.10;1.00;;;;;;5115205;27;20454;-77
2024/02/10 04:36:51;;;;;;;11.87;10.63;;;10.10;1.00;;;;;;5115670;27;20466;-76
2024/02/10 04:39:18;;;;;;;10.93;9.83;;;10.00;1.00;;;;;;5113634;27;20466;-77
2024/02/10 04:41:46;;;;;;;11.93;10.73;;;10.00;1.00;;;;;;5115189;27;20997;-74
2024/02/10 04:44:13;;;;;;;11.87;10.77;;;10.10;1.00;;;;;;5110758;27;20545;-73
2024/02/10 04:46:42;;;;;;;11.90;10.63;;;10.10;1.00;;;;;;5113209;27;20533;-73
2024/02/10 04:49:11;;;;;;;11.90;10.70;;;10.10;1.00;;;;;;5111704;27;20585;-73
2024/02/10 04:51:39;;;;;;;12.50;11.23;;;10.10;1.00;;;;;;5108877;27;20449;-74
2024/02/10 04:54:08;;;;;;;11.70;10.53;;;10.10;1.00;;;;;;5113997;27;20470;-74
2024/02/10 04:56:36;;;;;;;12.83;11.63;;;10.20;1.00;;;;;;5113532;27;20473;-73
2024/02/10 04:59:05;;;;;;;12.70;11.53;;;10.20;1.00;;;;;;5107867;27;20461;-73
2024/02/10 05:01:32;;;;;;;11.37;10.30;;;10.20;1.00;;;;;;5112916;27;20448;-73
2024/02/10 05:03:59;;;;;;;12.93;11.00;;;10.20;1.00;;;;;;5103292;27;20540;-73
2024/02/10 05:06:29;;;;;;;13.03;10.70;;;10.10;1.00;;;;;;5110057;27;20487;-72
2024/02/10 05:08:58;;;;;;;10.80;9.70;;;10.10;1.00;;;;;;5094354;27;20494;-73
2024/02/10 05:11:26;;;;;;;11.93;10.83;;;10.10;1.00;;;;;;5108882;27;21180;-72
2024/02/10 05:13:53;;;;;;;11.43;10.23;;;10.10;1.00;;;;;;5109631;27;20553;-72
2024/02/10 05:16:22;;;;;;;11.17;9.60;;;10.20;1.00;;;;;;5106916;27;20459;-72
2024/02/10 05:18:54;;;;;;;14.53;11.13;;;10.10;1.00;;;;;;5111411;27;20460;-72
2024/02/10 05:21:22;;;;;;;12.70;10.50;;;10.00;1.00;;;;;;5105130;27;20453;-73
2024/02/10 05:23:49;;;;;;;11.70;10.70;;;10.00;1.00;;;;;;5109428;27;20465;-74
2024/02/10 05:26:17;;;;;;;10.80;9.70;;;10.10;1.00;;;;;;5107981;27;20975;-73
2024/02/10 05:28:46;;;;;;;12.10;10.87;;;10.20;1.00;;;;;;5111984;27;21027;-73
2024/02/10 05:31:13;;;;;;;11.33;9.13;;;10.20;1.00;;;;;;5108877;27;20454;-73
2024/02/10 05:33:43;;;;;;;9.63;8.73;;;10.20;1.00;;;;;;5092245;27;20573;-72
2024/02/10 05:36:10;;;;;;;10.10;9.10;;;10.20;1.00;;;;;;5110764;27;20541;-74
2024/02/10 05:38:38;;;;;;;9.43;8.50;;;10.20;1.00;;;;;;5111263;27;20469;-74
2024/02/10 05:41:05;;;;;;;13.27;11.03;;;10.20;1.00;;;;;;5105993;28;20899;-73
2024/02/10 05:43:32;;;;;;;11.07;10.00;;;10.10;1.00;;;;;;5110774;27;20563;-73
2024/02/10 05:46:01;;;;;;;10.73;8.93;;;10.10;1.00;;;;;;5110170;27;20457;-73
2024/02/10 05:48:31;;;;;;;10.13;8.83;;;10.20;1.00;;;;;;5105651;27;20474;-75
2024/02/10 05:51:00;;;;;;;10.97;9.90;;;10.30;1.00;;;;;;5108049;27;20522;-75
2024/02/10 05:53:27;;;;;;;11.63;10.53;;;10.30;1.00;;;;;;5110623;27;20452;-75
2024/02/10 05:55:54;;;;;;;10.33;9.33;;;10.30;1.00;;;;;;5109687;27;20427;-75
2024/02/10 05:58:23;;;;;;;10.27;9.30;;;10.30;1.00;;;;;;5111207;27;20461;-75
2024/02/10 06:00:50;;;;;;;11.60;10.43;;;10.10;1.00;;;;;;5106164;27;20465;-75
2024/02/10 06:03:17;;;;;;;10.87;9.90;;;9.90;1.00;;;;;;5108092;27;20532;-75
2024/02/10 06:05:44;;;;;;;10.80;9.80;;;9.90;1.00;;;;;;5107604;27;20450;-75
2024/02/10 06:08:14;;;;;;;11.57;9.77;;;10.00;1.00;;;;;;5106220;27;21040;-77
2024/02/10 06:10:42;;;;;;;11.80;10.70;;;10.10;1.00;;;;;;5106310;27;20469;-76
2024/02/10 06:13:08;;;;;;;10.60;9.60;;;10.10;1.00;;;;;;5106863;27;20557;-75
2024/02/10 06:15:36;;;;;;;10.73;9.60;;;10.10;1.00;;;;;;5103630;27;21056;-76
2024/02/10 06:18:03;;;;;;;9.93;9.03;;;10.10;1.00;;;;;;5105958;27;20573;-77
2024/02/10 06:20:31;;;;;;;11.67;10.57;;;10.20;1.00;;;;;;5105109;27;21350;-76
2024/02/10 06:22:58;;;;;;;9.63;8.70;;;10.20;1.00;;;;;;5107281;27;20545;-76
2024/02/10 06:25:28;;;;;;;10.43;9.50;;;10.20;1.00;;;;;;5108190;27;20461;-75
2024/02/10 06:27:55;;;;;;;10.53;8.60;;;10.20;1.00;;;;;;5105290;27;20961;-76
2024/02/10 06:30:24;;;;;;;11.50;10.40;;;10.20;1.00;;;;;;5105937;27;20458;-74
2024/02/10 06:32:51;;;;;;;9.90;9.00;;;10.20;1.00;;;;;;5103071;27;20951;-75
2024/02/10 06:35:19;;;;;;;11.40;8.67;;;10.20;1.00;;;;;;5107686;27;20568;-75
2024/02/10 06:37:47;;;;;;;10.13;9.23;;;10.20;1.00;;;;;;5110693;27;20469;-76
2024/02/10 06:40:15;;;;;;;10.70;9.60;;;10.30;1.00;;;;;;5107724;27;20456;-75
2024/02/10 06:42:46;;;;;;;10.60;9.60;;;10.40;1.00;;;;;;5103370;27;20973;-75
2024/02/10 06:45:14;;;;;;;9.47;8.57;;;10.30;1.00;;;;;;5107219;27;20453;-75
2024/02/10 06:47:43;;;;;;;10.50;9.40;;;10.40;1.00;;;;;;5105929;27;20473;-76
2024/02/10 06:50:12;;;;;;;11.23;10.20;;;10.50;1.00;;;;;;5108751;28;20456;-75
2024/02/10 06:52:39;;;;;;;10.80;9.20;;;10.50;1.00;;;;;;5112488;27;20528;-75
2024/02/10 06:55:07;;;;;;;10.20;9.20;;;10.60;1.00;;;;;;5112221;27;20454;-76
2024/02/10 06:57:41;;;;;;;11.80;9.43;;;10.60;1.00;;;;;;5109406;27;20515;-75
2024/02/10 07:00:13;;;;;;;12.20;10.80;;;10.50;1.00;;;;;;5108730;27;20831;-75
2024/02/10 07:02:41;;;;;;;11.60;10.50;;;10.40;1.00;;;;;;5113252;27;20583;-73
2024/02/10 07:05:12;;;;;;;12.63;11.30;;;10.30;1.00;;;;;;5111688;27;20454;-73
2024/02/10 07:07:41;;;;;;;12.93;11.20;;;10.40;1.00;;;;;;5111227;27;21152;-73
2024/02/10 07:10:14;;;;;;;12.20;11.00;;;10.40;1.00;;;;;;5109957;27;20434;-74
2024/02/10 07:12:42;;;;;;;13.00;11.70;;;10.40;1.00;;;;;;5110639;27;20466;-72
2024/02/10 07:15:17;;;;;;;11.70;10.70;;;10.40;1.00;;;;;;5107622;27;20466;-74
2024/02/10 07:17:46;;;;;;;11.70;10.60;;;10.50;1.00;;;;;;5111651;27;20472;-74
2024/02/10 07:20:15;;;;;;;11.10;10.00;;;10.60;1.00;;;;;;5113214;27;20610;-74
2024/02/10 07:22:42;;;;;;;12.20;11.00;;;10.50;1.00;;;;;;5109854;27;20465;-75
2024/02/10 07:25:11;;;;;;;12.30;11.00;;;10.50;1.00;;;;;;5110271;27;20462;-75
2024/02/10 07:27:38;;;;;;;12.67;10.40;;;10.50;1.00;;;;;;5110352;27;20596;-74
2024/02/10 07:30:06;;;;;;;38.67;26.57;;;10.50;1.00;;;;;;5110077;27;20451;-73
2024/02/10 07:32:34;;;;;;;11.53;10.43;;;10.50;1.00;;;;;;5108334;27;20557;-72
2024/02/10 07:35:02;;;;;;;12.00;10.90;;;10.40;1.00;;;;;;5108947;27;20466;-73
2024/02/10 07:37:29;;;;;;;10.97;9.90;;;10.50;1.00;;;;;;5111142;27;20469;-73
2024/02/10 07:39:57;;;;;;;11.20;10.10;;;10.60;1.00;;;;;;5109808;27;20528;-74
2024/02/10 07:42:25;;;;;;;11.70;10.50;;;10.60;1.00;;;;;;5110278;27;20450;-74
2024/02/10 07:44:55;;;;;;;11.87;10.00;;;10.60;1.00;;;;;;5109407;27;20548;-73
2024/02/10 07:47:22;;;;;;;12.53;11.30;;;10.60;1.00;;;;;;5110611;27;20449;-74
2024/02/10 07:49:52;;;;;;;12.33;11.10;;;10.50;1.00;;;;;;5109696;27;20453;-74
2024/02/10 07:52:19;;;;;;;11.73;10.63;;;10.60;1.00;;;;;;5107377;27;20457;-73
2024/02/10 07:54:47;;;;;;;11.83;10.73;;;10.70;1.00;;;;;;5107038;27;20524;-75
2024/02/10 07:57:19;;;;;;;12.80;11.50;;;10.70;1.00;;;;;;5107890;27;20470;-74
2024/02/10 07:59:48;;;;;;;13.53;12.03;;;10.60;1.00;;;;;;5108149;27;20906;-74
2024/02/10 08:02:20;;;;;;;13.37;11.97;;;10.70;1.00;;;;;;5109578;27;20550;-73
2024/02/10 08:04:49;;;;;;;13.90;12.50;;;10.70;1.00;;;;;;5089643;27;20473;-74
2024/02/10 08:07:19;;;;;;;12.20;11.00;;;10.60;1.00;;;;;;5108631;27;20430;-72
2024/02/10 08:09:46;;;;;;;14.07;12.03;;;10.70;1.00;;;;;;5111109;27;20454;-73
2024/02/10 08:12:20;;;;;;;14.00;12.60;;;10.70;1.00;;;;;;5110075;27;20547;-74
2024/02/10 08:14:50;;;;;;;16.70;13.67;;;10.60;1.00;;;;;;5111572;27;20449;-76
2024/02/10 08:17:20;;;;;;;14.03;12.40;;;10.70;1.00;;;;;;5109787;27;21023;-75
2024/02/10 08:19:47;;;;;;;14.57;13.07;;;10.70;1.00;;;;;;5112230;27;20458;-76
2024/02/10 08:22:14;;;;;;;18.83;16.93;;;10.80;1.00;;;;;;5098885;27;20458;-76
2024/02/10 08:24:45;;;;;;;13.60;12.20;;;11.00;1.00;;;;;;5108784;27;20451;-78
2024/02/10 08:27:15;;;;;;;15.90;13.67;;;11.00;1.00;;;;;;5109906;27;20483;-78
2024/02/10 08:29:42;;;;;;;17.90;14.03;;;11.10;1.00;;;;;;5111582;27;20478;-76
2024/02/10 08:32:13;;;;;;;15.93;14.20;;;11.20;1.00;;;;;;5111761;27;20464;-75
2024/02/10 08:34:43;;;;;;;13.47;12.03;;;11.30;1.00;;;;;;5112411;27;20882;-76
2024/02/10 08:37:12;;;;;;;14.53;13.00;;;11.30;1.00;;;;;;5114531;27;20467;-75
2024/02/10 08:39:43;;;;;;;15.07;13.57;;;11.30;1.00;;;;;;5112703;27;20457;-75
2024/02/10 08:42:13;;;;;;;15.77;14.00;;;11.40;1.00;;;;;;5113111;27;20464;-77
2024/02/10 08:44:40;;;;;;;16.20;13.67;;;11.40;1.00;;;;;;5114892;27;20516;-76
2024/02/10 08:47:08;;;;;;;14.20;12.70;;;11.40;1.00;;;;;;5111594;27;20504;-75
2024/02/10 08:49:35;;;;;;;14.67;13.20;;;11.50;1.00;;;;;;5112375;27;20872;-76
2024/02/10 08:52:03;;;;;;;14.03;12.63;;;11.40;1.00;;;;;;5112453;27;20470;-75
2024/02/10 08:54:31;;;;;;;15.50;12.97;;;11.50;1.00;;;;;;5110576;27;21029;-75
2024/02/10 08:57:00;;;;;;;13.80;12.13;;;11.50;1.00;;;;;;5111841;27;20474;-75
2024/02/10 08:59:31;;;;;;;14.60;13.20;;;11.50;1.00;;;;;;5108796;27;21114;-76
2024/02/10 09:02:02;;;;;;;15.97;12.83;;;11.40;1.00;;;;;;5113763;27;20470;-75
2024/02/10 09:04:29;;;;;;;15.00;13.40;;;11.40;1.00;;;;;;5105932;27;20453;-75
2024/02/10 09:06:56;;;;;;;16.53;12.87;;;11.40;1.00;;;;;;5104620;27;20475;-75
2024/02/10 09:09:26;;;;;;;11.80;10.53;;;11.50;1.00;;;;;;5106910;27;20486;-75
2024/02/10 09:11:52;;;;;;;12.50;11.20;;;11.60;1.00;;;;;;5109768;27;20577;-74
2024/02/10 09:14:22;;;;;;;13.70;12.30;;;11.60;1.00;;;;;;5105984;27;20505;-77
2024/02/10 09:16:49;;;;;;;14.43;11.80;;;11.70;1.00;;;;;;5109213;27;20477;-76
2024/02/10 09:19:18;;;;;;;15.23;10.17;;;11.80;1.00;;;;;;5105548;27;20524;-76
2024/02/10 09:21:45;;;;;;;13.20;10.93;;;11.70;1.00;;;;;;5108817;27;20466;-75
2024/02/10 09:24:13;;;;;;;13.97;11.30;;;11.80;1.00;;;;;;5107766;27;20600;-75
2024/02/10 09:26:40;;;;;;;11.90;10.67;;;11.70;1.00;;;;;;5104955;27;20454;-76
2024/02/10 09:29:07;;;;;;;11.73;10.50;;;11.70;1.00;;;;;;5109149;27;20480;-75
2024/02/10 09:31:36;;;;;;;12.37;10.77;;;11.70;1.00;;;;;;5109098;27;20519;-75
2024/02/10 09:34:04;;;;;;;14.10;11.53;;;11.80;1.00;;;;;;5110172;27;20494;-74
2024/02/10 09:36:32;;;;;;;14.17;11.70;;;11.80;1.00;;;;;;5111865;27;20550;-75
2024/02/10 09:38:59;;;;;;;13.30;11.13;;;12.00;1.00;;;;;;5099832;27;20474;-74
2024/02/10 09:41:27;;;;;;;12.17;10.97;;;12.00;1.00;;;;;;5109709;27;20454;-76
2024/02/10 09:43:57;;;;;;;12.53;11.23;;;12.00;1.00;;;;;;5109128;27;20463;-75
2024/02/10 09:46:24;;;;;;;11.93;10.73;;;12.20;1.00;;;;;;5111350;27;20473;-76
2024/02/10 09:48:53;;;;;;;11.40;10.30;;;12.30;1.00;;;;;;5108908;28;20459;-75
2024/02/10 09:51:20;;;;;;;11.50;10.43;;;12.50;1.00;;;;;;5108018;27;20480;-74
2024/02/10 09:53:47;;;;;;;9.00;8.00;;;12.50;1.00;;;;;;5108851;27;21002;-76
2024/02/10 09:56:15;;;;;;;10.23;9.03;;;12.60;1.00;;;;;;5108734;27;21003;-76
2024/02/10 09:58:44;;;;;;;8.83;8.03;;;12.80;1.00;;;;;;5110744;27;20483;-76
2024/02/10 10:01:13;;;;;;;10.43;9.33;;;12.70;1.00;;;;;;5106549;27;20464;-75
2024/02/10 10:03:40;;;;;;;9.80;8.27;;;12.60;1.00;;;;;;5105960;27;20472;-75
2024/02/10 10:06:10;;;;;;;10.40;9.33;;;12.50;1.00;;;;;;5106469;27;20997;-75
2024/02/10 10:08:38;;;;;;;9.20;8.30;;;12.50;1.00;;;;;;5107403;27;20459;-76
2024/02/10 10:11:06;;;;;;;9.33;8.23;;;12.50;1.00;;;;;;5106654;27;20465;-76
2024/02/10 10:13:35;;;;;;;9.03;8.13;;;12.20;1.00;;;;;;5109577;27;20838;-76
2024/02/10 10:16:06;;;;;;;9.07;8.17;;;12.10;1.00;;;;;;5108169;27;20600;-76
2024/02/10 10:18:35;;;;;;;10.03;8.90;;;11.90;1.00;;;;;;5111601;27;20471;-76
2024/02/10 10:21:05;;;;;;;10.77;7.73;;;12.00;1.00;;;;;;5111462;27;21017;-75
2024/02/10 10:23:34;;;;;;;9.83;7.70;;;12.00;1.00;;;;;;5106924;27;20482;-76
2024/02/10 10:26:01;;;;;;;8.50;7.50;;;12.20;1.00;;;;;;5112153;27;21266;-77
2024/02/10 10:28:30;;;;;;;8.70;7.67;;;12.30;1.00;;;;;;5115081;27;20449;-76
2024/02/10 10:31:01;;;;;;;7.27;6.57;;;12.40;1.00;;;;;;5111514;27;21879;-76
2024/02/10 10:33:29;;;;;;;8.50;7.70;;;12.50;1.00;;;;;;5114089;27;20456;-77
2024/02/10 10:36:02;;;;;;;8.37;7.10;;;12.60;1.00;;;;;;5113833;27;20515;-79
2024/02/10 10:38:30;;;;;;;7.07;6.37;;;12.60;1.00;;;;;;5108584;27;20460;-76
2024/02/10 10:40:59;;;;;;;8.47;7.10;;;12.70;1.00;;;;;;5108164;27;20474;-75
2024/02/10 10:43:26;;;;;;;9.93;8.07;;;12.80;1.00;;;;;;5113194;27;20495;-77
2024/02/10 10:45:54;;;;;;;8.47;7.57;;;13.00;1.00;;;;;;5113197;27;20470;-74
2024/02/10 10:48:21;;;;;;;7.50;6.80;;;13.10;1.00;;;;;;5113692;27;20460;-78
2024/02/10 10:50:52;;;;;;;13.07;11.87;;;13.30;1.00;;;;;;5109514;27;20549;-77
2024/02/10 10:53:21;;;;;;;6.40;5.80;;;13.30;1.00;;;;;;5110458;27;20450;-76
2024/02/10 10:55:54;;;;;;;6.57;5.97;;;13.50;1.00;;;;;;5113946;27;20796;-76
2024/02/10 10:58:26;;;;;;;6.10;5.53;;;13.70;1.00;;;;;;5113686;27;20453;-75
2024/02/10 11:00:55;;;;;;;8.73;5.53;;;13.90;1.00;;;;;;5110725;27;20569;-77
2024/02/10 11:03:24;;;;;;;7.17;5.73;;;13.80;1.00;;;;;;5109984;27;20530;-75
2024/02/10 11:05:52;;;;;;;9.87;5.97;;;13.60;1.00;;;;;;5111869;27;20487;-75
2024/02/10 11:08:25;;;;;;;6.00;5.20;;;13.50;1.00;;;;;;5111239;27;20563;-77
2024/02/10 11:11:00;;;;;;;6.30;5.80;;;13.60;1.00;;;;;;5110897;27;20559;-76
2024/02/10 11:13:31;;;;;;;6.07;5.50;;;13.70;1.00;;;;;;5108925;27;20434;-75
2024/02/10 11:16:06;;;;;;;6.90;5.43;;;13.60;1.00;;;;;;5110883;27;20503;-76
2024/02/10 11:18:35;;;;;;;5.60;5.10;;;13.40;1.00;;;;;;5112331;27;20927;-76
2024/02/10 11:21:18;;;;;;;5.80;5.10;;;13.30;1.00;;;;;;5108708;27;20492;-76
2024/02/10 11:23:57;;;;;;;6.00;5.50;;;13.60;1.00;;;;;;5112849;27;20457;-77
2024/02/10 11:26:26;;;;;;;5.60;5.03;;;13.70;1.00;;;;;;5110265;27;20471;-78
2024/02/10 11:29:01;;;;;;;7.97;5.07;;;13.70;1.00;;;;;;5112288;27;20502;-78
2024/02/10 11:31:29;;;;;;;6.33;5.37;;;13.90;1.00;;;;;;5114780;27;20655;-77
2024/02/10 11:34:04;;;;;;;8.40;5.73;;;14.00;1.00;;;;;;5112810;27;20482;-78
2024/02/10 11:36:33;;;;;;;7.80;5.40;;;14.10;1.00;;;;;;5110254;27;20491;-77
2024/02/10 11:39:00;;;;;;;6.50;5.37;;;14.10;1.00;;;;;;5106657;27;21750;-76
2024/02/10 11:41:30;;;;;;;5.47;4.97;;;14.50;1.00;;;;;;5114679;27;20545;-75
2024/02/10 11:43:57;;;;;;;6.50;5.90;;;14.90;1.00;;;;;;5110946;27;20472;-75
2024/02/10 11:46:27;;;;;;;6.63;4.80;;;15.50;1.00;;;;;;5109186;27;20462;-74
2024/02/10 11:48:57;;;;;;;5.90;5.40;;;16.30;1.00;;;;;;5101088;27;20453;-74
2024/02/10 11:51:27;;;;;;;5.27;4.77;;;17.10;1.00;;;;;;5108038;27;20423;-75
2024/02/10 11:53:56;;;;;;;4.93;4.53;;;17.70;1.00;;;;;;5111552;27;20451;-74
2024/02/10 11:56:25;;;;;;;5.10;4.67;;;17.20;1.00;;;;;;5106853;27;20462;-75
2024/02/10 11:58:55;;;;;;;5.57;4.83;;;16.40;1.00;;;;;;5109902;27;20450;-75
2024/02/10 12:01:22;;;;;;;4.87;4.47;;;16.00;1.00;;;;;;5109347;27;21050;-74
2024/02/10 12:03:53;;;;;;;5.80;5.17;;;16.10;1.00;;;;;;5108210;27;20463;-74
2024/02/10 12:06:21;;;;;;;5.33;4.90;;;16.20;1.00;;;;;;5108780;27;20463;-74
2024/02/10 12:08:48;;;;;;;5.87;5.27;;;16.40;1.00;;;;;;5108489;27;20837;-76
2024/02/10 12:11:17;;;;;;;6.00;5.40;;;16.60;1.00;;;;;;5111517;27;20462;-74
2024/02/10 12:13:45;;;;;;;4.53;4.13;;;17.10;1.00;;;;;;5110637;27;20446;-76
2024/02/10 12:16:13;;;;;;;3.93;3.60;;;17.40;1.00;;;;;;5107779;27;20525;-76
2024/02/10 12:18:41;;;;;;;4.73;4.40;;;17.80;1.00;;;;;;5094086;27;20469;-76
2024/02/10 12:21:12;;;;;;;4.90;4.40;;;18.40;1.00;;;;;;5109720;27;20479;-78
2024/02/10 12:23:41;;;;;;;4.37;3.97;;;18.80;1.00;;;;;;5094650;28;20924;-76
2024/02/10 12:26:09;;;;;;;3.43;3.13;;;18.90;1.00;;;;;;5108659;27;20474;-75
2024/02/10 12:28:36;;;;;;;3.80;3.50;;;18.20;1.00;;;;;;5110072;27;20468;-75
2024/02/10 12:31:03;;;;;;;4.27;3.83;;;17.70;1.00;;;;;;5108313;27;20910;-75
2024/02/10 12:33:30;;;;;;;3.20;2.87;;;18.00;1.00;;;;;;5107778;27;20448;-75
2024/02/10 12:35:58;;;;;;;4.20;3.80;;;18.10;1.00;;;;;;5109320;27;20563;-74
2024/02/10 12:38:27;;;;;;;3.73;3.43;;;18.00;1.00;;;;;;5106616;27;20437;-75
2024/02/10 12:40:56;;;;;;;3.90;3.60;;;18.10;1.00;;;;;;5111610;27;20498;-75
2024/02/10 12:43:26;;;;;;;4.30;3.90;;;18.10;1.00;;;;;;5108734;27;20601;-75
2024/02/10 12:45:53;;;;;;;4.27;3.93;;;18.40;1.00;;;;;;5108258;27;20484;-75
2024/02/10 12:48:23;;;;;;;4.20;3.47;;;19.20;1.00;;;;;;5108231;27;20458;-75
2024/02/10 12:50:51;;;;;;;4.43;3.63;;;21.10;1.00;;;;;;5106997;27;20457;-75